sensor_id;sensor_type;location;lat;lon;timestamp;P1;durP1;ratioP1;P2;durP2;ratioP2
84931;SDS011;75193;53.980;13.902;2024-03-29T00:00:39;3.20;;;1.77;;
84931;SDS011;75193;53.980;13.902;2024-03-29T00:03:05;1.85;;;1.52;;
84931;SDS011;75193;53.980;13.902;2024-03-29T00:05:31;2.17;;;1.48;;
84931;SDS011;75193;53.980;13.902;2024-03-29T00:07:57;1.70;;;1.60;;
84931;SDS011;75193;53.980;13.902;2024-03-29T00:10:22;1.80;;;1.35;;
84931;SDS011;75193;53.980;13.902;2024-03-29T00:12:47;2.67;;;1.70;;
84931;SDS011;75193;53.980;13.902;2024-03-29T00:15:14;1.88;;;1.35;;
84931;SDS011;75193;53.980;13.902;2024-03-29T00:17:39;5.18;;;1.40;;
84931;SDS011;75193;53.980;13.902;2024-03-29T00:20:04;1.60;;;1.30;;
84931;SDS011;75193;53.980;13.902;2024-03-29T00:22:31;2.08;;;1.50;;
84931;SDS011;75193;53.980;13.902;2024-03-29T00:24:56;2.40;;;1.58;;
84931;SDS011;75193;53.980;13.902;2024-03-29T00:27:22;3.50;;;1.80;;
84931;SDS011;75193;53.980;13.902;2024-03-29T00:29:50;3.10;;;1.63;;
84931;SDS011;75193;53.980;13.902;2024-03-29T00:32:18;1.55;;;1.45;;
84931;SDS011;75193;53.980;13.902;2024-03-29T00:34:44;2.05;;;1.48;;
84931;SDS011;75193;53.980;13.902;2024-03-29T00:39:36;2.65;;;1.67;;
84931;SDS011;75193;53.980;13.902;2024-03-29T00:42:01;2.47;;;1.70;;
84931;SDS011;75193;53.980;13.902;2024-03-29T00:46:52;1.70;;;1.40;;
84931;SDS011;75193;53.980;13.902;2024-03-29T00:49:17;3.15;;;1.70;;
84931;SDS011;75193;53.980;13.902;2024-03-29T00:51:43;3.10;;;1.60;;
84931;SDS011;75193;53.980;13.902;2024-03-29T00:54:08;2.25;;;1.67;;
84931;SDS011;75193;53.980;13.902;2024-03-29T00:56:34;2.53;;;1.92;;
84931;SDS011;75193;53.980;13.902;2024-03-29T00:58:59;3.55;;;2.20;;
84931;SDS011;75193;53.980;13.902;2024-03-29T01:01:24;2.30;;;2.10;;
84931;SDS011;75193;53.980;13.902;2024-03-29T01:03:50;2.25;;;1.55;;
84931;SDS011;75193;53.980;13.902;2024-03-29T01:06:17;3.15;;;1.95;;
84931;SDS011;75193;53.980;13.902;2024-03-29T01:08:42;2.75;;;1.80;;
84931;SDS011;75193;53.980;13.902;2024-03-29T01:11:08;2.20;;;1.50;;
84931;SDS011;75193;53.980;13.902;2024-03-29T01:13:33;2.97;;;1.77;;
84931;SDS011;75193;53.980;13.902;2024-03-29T01:15:58;2.17;;;1.63;;
84931;SDS011;75193;53.980;13.902;2024-03-29T01:18:24;2.50;;;1.70;;
84931;SDS011;75193;53.980;13.902;2024-03-29T01:20:49;1.98;;;1.55;;
84931;SDS011;75193;53.980;13.902;2024-03-29T01:23:14;2.83;;;1.60;;
84931;SDS011;75193;53.980;13.902;2024-03-29T01:25:40;2.42;;;1.70;;
84931;SDS011;75193;53.980;13.902;2024-03-29T01:28:05;2.10;;;1.60;;
84931;SDS011;75193;53.980;13.902;2024-03-29T01:30:31;2.47;;;1.30;;
84931;SDS011;75193;53.980;13.902;2024-03-29T01:32:56;3.53;;;1.70;;
84931;SDS011;75193;53.980;13.902;2024-03-29T01:35:22;2.05;;;1.50;;
84931;SDS011;75193;53.980;13.902;2024-03-29T01:37:47;2.50;;;1.73;;
84931;SDS011;75193;53.980;13.902;2024-03-29T01:40:12;3.05;;;1.75;;
84931;SDS011;75193;53.980;13.902;2024-03-29T01:42:38;2.58;;;1.58;;
84931;SDS011;75193;53.980;13.902;2024-03-29T01:45:04;2.00;;;1.63;;
84931;SDS011;75193;53.980;13.902;2024-03-29T01:47:30;2.00;;;1.65;;
84931;SDS011;75193;53.980;13.902;2024-03-29T01:49:55;3.17;;;1.92;;
84931;SDS011;75193;53.980;13.902;2024-03-29T01:52:21;2.45;;;1.67;;
84931;SDS011;75193;53.980;13.902;2024-03-29T01:54:46;2.83;;;1.75;;
84931;SDS011;75193;53.980;13.902;2024-03-29T01:57:15;2.35;;;1.58;;
84931;SDS011;75193;53.980;13.902;2024-03-29T01:59:42;1.90;;;1.65;;
84931;SDS011;75193;53.980;13.902;2024-03-29T02:02:10;2.13;;;1.65;;
84931;SDS011;75193;53.980;13.902;2024-03-29T02:04:36;2.15;;;1.88;;
84931;SDS011;75193;53.980;13.902;2024-03-29T02:07:02;2.60;;;1.63;;
84931;SDS011;75193;53.980;13.902;2024-03-29T02:09:29;3.15;;;2.00;;
84931;SDS011;75193;53.980;13.902;2024-03-29T02:11:54;2.22;;;1.65;;
84931;SDS011;75193;53.980;13.902;2024-03-29T02:16:46;1.40;;;1.30;;
84931;SDS011;75193;53.980;13.902;2024-03-29T02:19:11;2.08;;;1.60;;
84931;SDS011;75193;53.980;13.902;2024-03-29T02:21:37;2.50;;;1.70;;
84931;SDS011;75193;53.980;13.902;2024-03-29T02:24:10;2.35;;;1.70;;
84931;SDS011;75193;53.980;13.902;2024-03-29T02:26:39;2.40;;;1.70;;
84931;SDS011;75193;53.980;13.902;2024-03-29T02:29:06;2.88;;;1.70;;
84931;SDS011;75193;53.980;13.902;2024-03-29T02:31:33;2.95;;;1.90;;
84931;SDS011;75193;53.980;13.902;2024-03-29T02:33:58;2.22;;;1.40;;
84931;SDS011;75193;53.980;13.902;2024-03-29T02:36:24;2.28;;;1.60;;
84931;SDS011;75193;53.980;13.902;2024-03-29T02:38:49;4.43;;;1.70;;
84931;SDS011;75193;53.980;13.902;2024-03-29T02:41:15;2.50;;;2.10;;
84931;SDS011;75193;53.980;13.902;2024-03-29T02:43:40;2.10;;;1.60;;
84931;SDS011;75193;53.980;13.902;2024-03-29T02:46:06;2.53;;;1.52;;
84931;SDS011;75193;53.980;13.902;2024-03-29T02:48:31;1.85;;;1.50;;
84931;SDS011;75193;53.980;13.902;2024-03-29T02:50:56;3.80;;;1.70;;
84931;SDS011;75193;53.980;13.902;2024-03-29T02:53:22;2.33;;;1.70;;
84931;SDS011;75193;53.980;13.902;2024-03-29T02:55:47;4.15;;;1.77;;
84931;SDS011;75193;53.980;13.902;2024-03-29T02:58:12;2.88;;;1.92;;
84931;SDS011;75193;53.980;13.902;2024-03-29T03:00:38;2.53;;;1.85;;
84931;SDS011;75193;53.980;13.902;2024-03-29T03:03:03;2.42;;;1.67;;
84931;SDS011;75193;53.980;13.902;2024-03-29T03:05:29;4.13;;;1.70;;
84931;SDS011;75193;53.980;13.902;2024-03-29T03:07:54;3.45;;;1.80;;
84931;SDS011;75193;53.980;13.902;2024-03-29T03:10:44;2.60;;;1.60;;
84931;SDS011;75193;53.980;13.902;2024-03-29T03:13:24;2.10;;;1.70;;
84931;SDS011;75193;53.980;13.902;2024-03-29T03:15:51;2.83;;;2.33;;
84931;SDS011;75193;53.980;13.902;2024-03-29T03:18:16;1.70;;;1.35;;
84931;SDS011;75193;53.980;13.902;2024-03-29T03:20:41;2.05;;;1.50;;
84931;SDS011;75193;53.980;13.902;2024-03-29T03:23:07;1.77;;;1.60;;
84931;SDS011;75193;53.980;13.902;2024-03-29T03:25:32;2.28;;;1.60;;
84931;SDS011;75193;53.980;13.902;2024-03-29T03:27:58;2.50;;;1.60;;
84931;SDS011;75193;53.980;13.902;2024-03-29T03:30:23;1.58;;;1.35;;
84931;SDS011;75193;53.980;13.902;2024-03-29T03:32:48;2.85;;;1.63;;
84931;SDS011;75193;53.980;13.902;2024-03-29T03:35:14;2.53;;;1.52;;
84931;SDS011;75193;53.980;13.902;2024-03-29T03:37:39;2.20;;;1.63;;
84931;SDS011;75193;53.980;13.902;2024-03-29T03:40:05;2.45;;;1.77;;
84931;SDS011;75193;53.980;13.902;2024-03-29T03:42:31;2.72;;;1.80;;
84931;SDS011;75193;53.980;13.902;2024-03-29T03:44:57;1.75;;;1.30;;
84931;SDS011;75193;53.980;13.902;2024-03-29T03:47:23;2.05;;;1.52;;
84931;SDS011;75193;53.980;13.902;2024-03-29T03:49:48;1.75;;;1.42;;
84931;SDS011;75193;53.980;13.902;2024-03-29T03:52:13;2.20;;;1.40;;
84931;SDS011;75193;53.980;13.902;2024-03-29T03:54:39;1.33;;;1.17;;
84931;SDS011;75193;53.980;13.902;2024-03-29T03:57:04;2.63;;;1.60;;
84931;SDS011;75193;53.980;13.902;2024-03-29T03:59:30;2.38;;;1.42;;
84931;SDS011;75193;53.980;13.902;2024-03-29T04:01:56;4.20;;;1.77;;
84931;SDS011;75193;53.980;13.902;2024-03-29T04:04:21;3.17;;;1.80;;
84931;SDS011;75193;53.980;13.902;2024-03-29T04:06:46;1.88;;;1.50;;
84931;SDS011;75193;53.980;13.902;2024-03-29T04:09:15;1.70;;;1.60;;
84931;SDS011;75193;53.980;13.902;2024-03-29T04:11:41;2.97;;;1.60;;
84931;SDS011;75193;53.980;13.902;2024-03-29T04:14:07;2.00;;;1.65;;
84931;SDS011;75193;53.980;13.902;2024-03-29T04:16:32;4.55;;;1.77;;
84931;SDS011;75193;53.980;13.902;2024-03-29T04:18:58;1.35;;;1.23;;
84931;SDS011;75193;53.980;13.902;2024-03-29T04:21:23;2.25;;;1.60;;
84931;SDS011;75193;53.980;13.902;2024-03-29T04:23:49;3.83;;;1.83;;
84931;SDS011;75193;53.980;13.902;2024-03-29T04:26:14;3.03;;;1.67;;
84931;SDS011;75193;53.980;13.902;2024-03-29T04:28:39;2.67;;;1.50;;
84931;SDS011;75193;53.980;13.902;2024-03-29T04:31:05;3.80;;;1.83;;
84931;SDS011;75193;53.980;13.902;2024-03-29T04:33:30;2.28;;;1.63;;
84931;SDS011;75193;53.980;13.902;2024-03-29T04:35:57;3.15;;;1.60;;
84931;SDS011;75193;53.980;13.902;2024-03-29T04:38:25;2.58;;;1.90;;
84931;SDS011;75193;53.980;13.902;2024-03-29T04:40:52;2.88;;;1.80;;
84931;SDS011;75193;53.980;13.902;2024-03-29T04:43:20;3.28;;;1.50;;
84931;SDS011;75193;53.980;13.902;2024-03-29T04:45:47;2.65;;;1.50;;
84931;SDS011;75193;53.980;13.902;2024-03-29T04:48:13;2.97;;;1.58;;
84931;SDS011;75193;53.980;13.902;2024-03-29T04:50:38;2.53;;;1.50;;
84931;SDS011;75193;53.980;13.902;2024-03-29T04:55:30;1.73;;;1.40;;
84931;SDS011;75193;53.980;13.902;2024-03-29T04:57:55;1.50;;;1.30;;
84931;SDS011;75193;53.980;13.902;2024-03-29T05:00:21;3.88;;;1.30;;
84931;SDS011;75193;53.980;13.902;2024-03-29T05:02:46;1.73;;;1.42;;
84931;SDS011;75193;53.980;13.902;2024-03-29T05:05:12;4.05;;;1.58;;
84931;SDS011;75193;53.980;13.902;2024-03-29T05:07:37;2.70;;;1.67;;
84931;SDS011;75193;53.980;13.902;2024-03-29T05:10:03;2.38;;;1.40;;
84931;SDS011;75193;53.980;13.902;2024-03-29T05:12:31;3.08;;;1.42;;
84931;SDS011;75193;53.980;13.902;2024-03-29T05:14:57;3.28;;;1.50;;
84931;SDS011;75193;53.980;13.902;2024-03-29T05:17:22;2.10;;;1.45;;
84931;SDS011;75193;53.980;13.902;2024-03-29T05:19:51;2.22;;;1.52;;
84931;SDS011;75193;53.980;13.902;2024-03-29T05:22:17;1.48;;;1.20;;
84931;SDS011;75193;53.980;13.902;2024-03-29T05:24:42;2.22;;;1.35;;
84931;SDS011;75193;53.980;13.902;2024-03-29T05:27:08;3.53;;;1.33;;
84931;SDS011;75193;53.980;13.902;2024-03-29T05:29:33;2.40;;;1.20;;
84931;SDS011;75193;53.980;13.902;2024-03-29T05:31:58;1.40;;;1.23;;
84931;SDS011;75193;53.980;13.902;2024-03-29T05:34:24;1.83;;;1.13;;
84931;SDS011;75193;53.980;13.902;2024-03-29T05:36:49;4.38;;;1.63;;
84931;SDS011;75193;53.980;13.902;2024-03-29T05:39:15;1.65;;;1.30;;
84931;SDS011;75193;53.980;13.902;2024-03-29T05:41:40;2.58;;;1.27;;
84931;SDS011;75193;53.980;13.902;2024-03-29T05:46:31;1.63;;;1.40;;
84931;SDS011;75193;53.980;13.902;2024-03-29T05:48:57;2.60;;;1.65;;
84931;SDS011;75193;53.980;13.902;2024-03-29T05:51:22;3.05;;;1.38;;
84931;SDS011;75193;53.980;13.902;2024-03-29T05:53:47;2.35;;;1.23;;
84931;SDS011;75193;53.980;13.902;2024-03-29T05:56:13;4.90;;;1.50;;
84931;SDS011;75193;53.980;13.902;2024-03-29T06:01:04;2.67;;;1.33;;
84931;SDS011;75193;53.980;13.902;2024-03-29T06:05:55;1.77;;;1.20;;
84931;SDS011;75193;53.980;13.902;2024-03-29T06:10:46;2.05;;;1.20;;
84931;SDS011;75193;53.980;13.902;2024-03-29T06:13:12;2.72;;;1.40;;
84931;SDS011;75193;53.980;13.902;2024-03-29T06:15:55;2.05;;;1.50;;
84931;SDS011;75193;53.980;13.902;2024-03-29T06:18:39;2.90;;;1.35;;
84931;SDS011;75193;53.980;13.902;2024-03-29T06:23:30;3.47;;;1.35;;
84931;SDS011;75193;53.980;13.902;2024-03-29T06:28:21;2.40;;;1.50;;
84931;SDS011;75193;53.980;13.902;2024-03-29T06:30:46;2.28;;;1.80;;
84931;SDS011;75193;53.980;13.902;2024-03-29T06:35:37;2.20;;;1.37;;
84931;SDS011;75193;53.980;13.902;2024-03-29T06:40:27;2.20;;;1.38;;
84931;SDS011;75193;53.980;13.902;2024-03-29T06:42:53;1.95;;;1.35;;
84931;SDS011;75193;53.980;13.902;2024-03-29T06:45:21;3.25;;;1.20;;
84931;SDS011;75193;53.980;13.902;2024-03-29T06:47:47;2.40;;;1.40;;
84931;SDS011;75193;53.980;13.902;2024-03-29T06:50:12;2.22;;;1.50;;
84931;SDS011;75193;53.980;13.902;2024-03-29T06:52:37;4.60;;;1.92;;
84931;SDS011;75193;53.980;13.902;2024-03-29T06:55:03;1.73;;;1.30;;
84931;SDS011;75193;53.980;13.902;2024-03-29T06:59:56;1.60;;;1.20;;
84931;SDS011;75193;53.980;13.902;2024-03-29T07:04:47;2.13;;;1.27;;
84931;SDS011;75193;53.980;13.902;2024-03-29T07:09:38;3.90;;;1.63;;
84931;SDS011;75193;53.980;13.902;2024-03-29T07:12:04;1.83;;;1.30;;
84931;SDS011;75193;53.980;13.902;2024-03-29T07:14:29;3.35;;;1.27;;
84931;SDS011;75193;53.980;13.902;2024-03-29T07:16:56;1.85;;;1.30;;
84931;SDS011;75193;53.980;13.902;2024-03-29T07:21:47;1.95;;;1.35;;
84931;SDS011;75193;53.980;13.902;2024-03-29T07:26:38;2.63;;;1.30;;
84931;SDS011;75193;53.980;13.902;2024-03-29T07:31:30;1.42;;;1.20;;
84931;SDS011;75193;53.980;13.902;2024-03-29T07:36:22;1.95;;;1.23;;
84931;SDS011;75193;53.980;13.902;2024-03-29T07:38:50;2.38;;;1.20;;
84931;SDS011;75193;53.980;13.902;2024-03-29T07:41:15;2.00;;;1.40;;
84931;SDS011;75193;53.980;13.902;2024-03-29T07:46:16;3.97;;;1.50;;
84931;SDS011;75193;53.980;13.902;2024-03-29T07:48:41;2.35;;;1.50;;
84931;SDS011;75193;53.980;13.902;2024-03-29T07:51:06;2.28;;;1.38;;
84931;SDS011;75193;53.980;13.902;2024-03-29T07:53:32;1.30;;;1.20;;
84931;SDS011;75193;53.980;13.902;2024-03-29T07:55:57;2.60;;;1.60;;
84931;SDS011;75193;53.980;13.902;2024-03-29T08:00:49;2.47;;;1.45;;
84931;SDS011;75193;53.980;13.902;2024-03-29T08:03:15;1.95;;;1.20;;
84931;SDS011;75193;53.980;13.902;2024-03-29T08:05:40;1.90;;;1.60;;
84931;SDS011;75193;53.980;13.902;2024-03-29T08:10:31;1.58;;;1.33;;
84931;SDS011;75193;53.980;13.902;2024-03-29T08:15:23;3.05;;;2.22;;
84931;SDS011;75193;53.980;13.902;2024-03-29T08:20:15;2.08;;;1.25;;
84931;SDS011;75193;53.980;13.902;2024-03-29T08:25:06;2.15;;;1.15;;
84931;SDS011;75193;53.980;13.902;2024-03-29T08:27:33;2.35;;;1.15;;
84931;SDS011;75193;53.980;13.902;2024-03-29T08:29:59;1.30;;;0.85;;
84931;SDS011;75193;53.980;13.902;2024-03-29T08:34:50;2.83;;;1.07;;
84931;SDS011;75193;53.980;13.902;2024-03-29T08:37:17;3.83;;;1.42;;
84931;SDS011;75193;53.980;13.902;2024-03-29T08:42:08;3.63;;;1.43;;
84931;SDS011;75193;53.980;13.902;2024-03-29T08:44:36;1.17;;;1.08;;
84931;SDS011;75193;53.980;13.902;2024-03-29T08:49:28;5.07;;;1.20;;
84931;SDS011;75193;53.980;13.902;2024-03-29T08:51:54;3.80;;;1.17;;
84931;SDS011;75193;53.980;13.902;2024-03-29T08:56:45;2.30;;;1.13;;
84931;SDS011;75193;53.980;13.902;2024-03-29T09:01:37;2.83;;;1.63;;
84931;SDS011;75193;53.980;13.902;2024-03-29T09:04:06;1.63;;;1.05;;
84931;SDS011;75193;53.980;13.902;2024-03-29T09:06:35;3.00;;;1.73;;
84931;SDS011;75193;53.980;13.902;2024-03-29T09:11:26;3.25;;;1.02;;
84931;SDS011;75193;53.980;13.902;2024-03-29T09:16:19;1.63;;;1.23;;
84931;SDS011;75193;53.980;13.902;2024-03-29T09:21:11;2.70;;;1.30;;
84931;SDS011;75193;53.980;13.902;2024-03-29T09:26:04;1.70;;;1.20;;
84931;SDS011;75193;53.980;13.902;2024-03-29T09:28:29;3.08;;;1.70;;
84931;SDS011;75193;53.980;13.902;2024-03-29T09:30:57;2.85;;;1.33;;
84931;SDS011;75193;53.980;13.902;2024-03-29T09:33:24;2.10;;;1.50;;
84931;SDS011;75193;53.980;13.902;2024-03-29T09:38:15;1.92;;;1.20;;
84931;SDS011;75193;53.980;13.902;2024-03-29T09:43:07;3.10;;;1.48;;
84931;SDS011;75193;53.980;13.902;2024-03-29T09:45:35;1.13;;;1.02;;
84931;SDS011;75193;53.980;13.902;2024-03-29T09:48:06;2.60;;;1.77;;
84931;SDS011;75193;53.980;13.902;2024-03-29T09:50:34;3.33;;;1.25;;
84931;SDS011;75193;53.980;13.902;2024-03-29T09:53:06;3.78;;;1.23;;
84931;SDS011;75193;53.980;13.902;2024-03-29T09:55:33;1.05;;;0.95;;
84931;SDS011;75193;53.980;13.902;2024-03-29T09:58:00;2.08;;;1.20;;
84931;SDS011;75193;53.980;13.902;2024-03-29T10:02:52;3.25;;;1.08;;
84931;SDS011;75193;53.980;13.902;2024-03-29T10:05:21;2.88;;;1.30;;
84931;SDS011;75193;53.980;13.902;2024-03-29T10:10:12;2.00;;;1.27;;
84931;SDS011;75193;53.980;13.902;2024-03-29T10:15:03;2.57;;;1.40;;
84931;SDS011;75193;53.980;13.902;2024-03-29T10:17:46;2.75;;;1.67;;
84931;SDS011;75193;53.980;13.902;2024-03-29T10:20:16;1.52;;;1.10;;
84931;SDS011;75193;53.980;13.902;2024-03-29T10:22:43;2.08;;;1.20;;
84931;SDS011;75193;53.980;13.902;2024-03-29T10:25:09;1.30;;;0.98;;
84931;SDS011;75193;53.980;13.902;2024-03-29T10:27:35;3.15;;;1.30;;
84931;SDS011;75193;53.980;13.902;2024-03-29T10:32:26;3.63;;;1.23;;
84931;SDS011;75193;53.980;13.902;2024-03-29T10:34:51;1.70;;;1.58;;
84931;SDS011;75193;53.980;13.902;2024-03-29T10:37:19;2.72;;;1.20;;
84931;SDS011;75193;53.980;13.902;2024-03-29T10:39:51;1.80;;;1.05;;
84931;SDS011;75193;53.980;13.902;2024-03-29T10:42:18;2.75;;;1.35;;
84931;SDS011;75193;53.980;13.902;2024-03-29T10:44:45;1.55;;;1.30;;
84931;SDS011;75193;53.980;13.902;2024-03-29T10:47:15;1.40;;;1.00;;
84931;SDS011;75193;53.980;13.902;2024-03-29T10:49:44;3.22;;;1.25;;
84931;SDS011;75193;53.980;13.902;2024-03-29T10:52:12;2.05;;;1.10;;
84931;SDS011;75193;53.980;13.902;2024-03-29T10:54:42;2.60;;;1.05;;
84931;SDS011;75193;53.980;13.902;2024-03-29T10:57:12;0.90;;;0.90;;
84931;SDS011;75193;53.980;13.902;2024-03-29T11:05:13;1.48;;;0.90;;
84931;SDS011;75193;53.980;13.902;2024-03-29T11:07:40;1.52;;;0.82;;
84931;SDS011;75193;53.980;13.902;2024-03-29T11:10:11;3.90;;;1.30;;
84931;SDS011;75193;53.980;13.902;2024-03-29T11:12:50;1.10;;;1.00;;
84931;SDS011;75193;53.980;13.902;2024-03-29T11:15:30;1.58;;;1.13;;
84931;SDS011;75193;53.980;13.902;2024-03-29T11:17:56;3.33;;;1.10;;
84931;SDS011;75193;53.980;13.902;2024-03-29T11:20:26;1.45;;;0.90;;
84931;SDS011;75193;53.980;13.902;2024-03-29T11:23:09;2.83;;;0.80;;
84931;SDS011;75193;53.980;13.902;2024-03-29T11:25:43;3.50;;;1.35;;
84931;SDS011;75193;53.980;13.902;2024-03-29T11:28:14;1.98;;;1.00;;
84931;SDS011;75193;53.980;13.902;2024-03-29T11:30:43;2.92;;;1.00;;
84931;SDS011;75193;53.980;13.902;2024-03-29T11:33:27;1.73;;;1.20;;
84931;SDS011;75193;53.980;13.902;2024-03-29T11:35:53;2.80;;;1.33;;
84931;SDS011;75193;53.980;13.902;2024-03-29T11:38:19;1.67;;;0.88;;
84931;SDS011;75193;53.980;13.902;2024-03-29T11:40:54;2.65;;;1.25;;
84931;SDS011;75193;53.980;13.902;2024-03-29T11:43:25;3.30;;;1.92;;
84931;SDS011;75193;53.980;13.902;2024-03-29T11:45:53;6.05;;;2.70;;
84931;SDS011;75193;53.980;13.902;2024-03-29T11:48:22;4.45;;;2.63;;
84931;SDS011;75193;53.980;13.902;2024-03-29T11:50:51;3.45;;;2.00;;
84931;SDS011;75193;53.980;13.902;2024-03-29T11:53:17;3.47;;;1.20;;
84931;SDS011;75193;53.980;13.902;2024-03-29T11:55:42;2.03;;;1.00;;
84931;SDS011;75193;53.980;13.902;2024-03-29T11:58:08;0.95;;;0.85;;
84931;SDS011;75193;53.980;13.902;2024-03-29T12:00:33;2.53;;;1.00;;
84931;SDS011;75193;53.980;13.902;2024-03-29T12:02:59;1.98;;;1.05;;
84931;SDS011;75193;53.980;13.902;2024-03-29T12:05:24;0.90;;;0.63;;
84931;SDS011;75193;53.980;13.902;2024-03-29T12:07:50;1.70;;;0.90;;
84931;SDS011;75193;53.980;13.902;2024-03-29T12:10:17;1.58;;;0.95;;
84931;SDS011;75193;53.980;13.902;2024-03-29T12:12:42;2.47;;;1.23;;
84931;SDS011;75193;53.980;13.902;2024-03-29T12:15:08;2.05;;;0.80;;
84931;SDS011;75193;53.980;13.902;2024-03-29T12:17:34;3.95;;;1.10;;
84931;SDS011;75193;53.980;13.902;2024-03-29T12:19:59;2.33;;;1.00;;
84931;SDS011;75193;53.980;13.902;2024-03-29T12:22:32;1.67;;;1.13;;
84931;SDS011;75193;53.980;13.902;2024-03-29T12:24:58;1.63;;;1.10;;
84931;SDS011;75193;53.980;13.902;2024-03-29T12:27:24;2.45;;;0.95;;
84931;SDS011;75193;53.980;13.902;2024-03-29T12:29:50;1.23;;;1.00;;
84931;SDS011;75193;53.980;13.902;2024-03-29T12:32:18;2.13;;;1.10;;
84931;SDS011;75193;53.980;13.902;2024-03-29T12:34:48;1.83;;;1.13;;
84931;SDS011;75193;53.980;13.902;2024-03-29T12:37:13;2.10;;;1.30;;
84931;SDS011;75193;53.980;13.902;2024-03-29T12:39:40;3.38;;;0.85;;
84931;SDS011;75193;53.980;13.902;2024-03-29T12:42:07;2.45;;;0.85;;
84931;SDS011;75193;53.980;13.902;2024-03-29T12:44:32;1.85;;;0.70;;
84931;SDS011;75193;53.980;13.902;2024-03-29T12:46:59;1.25;;;1.00;;
84931;SDS011;75193;53.980;13.902;2024-03-29T12:49:25;2.70;;;1.10;;
84931;SDS011;75193;53.980;13.902;2024-03-29T12:51:51;1.38;;;0.80;;
84931;SDS011;75193;53.980;13.902;2024-03-29T12:54:16;2.13;;;0.70;;
84931;SDS011;75193;53.980;13.902;2024-03-29T12:56:43;1.08;;;0.75;;
84931;SDS011;75193;53.980;13.902;2024-03-29T12:59:09;0.98;;;0.90;;
84931;SDS011;75193;53.980;13.902;2024-03-29T13:01:35;0.90;;;0.90;;
84931;SDS011;75193;53.980;13.902;2024-03-29T13:04:00;1.98;;;0.88;;
84931;SDS011;75193;53.980;13.902;2024-03-29T13:06:26;1.10;;;1.00;;
84931;SDS011;75193;53.980;13.902;2024-03-29T13:08:52;0.77;;;0.73;;
84931;SDS011;75193;53.980;13.902;2024-03-29T13:11:19;1.60;;;1.05;;
84931;SDS011;75193;53.980;13.902;2024-03-29T13:13:44;1.15;;;0.85;;
84931;SDS011;75193;53.980;13.902;2024-03-29T13:16:10;1.48;;;0.60;;
84931;SDS011;75193;53.980;13.902;2024-03-29T13:18:35;1.55;;;0.77;;
84931;SDS011;75193;53.980;13.902;2024-03-29T13:21:01;0.80;;;0.70;;
84931;SDS011;75193;53.980;13.902;2024-03-29T13:23:27;1.08;;;0.77;;
84931;SDS011;75193;53.980;13.902;2024-03-29T13:25:53;0.73;;;0.60;;
84931;SDS011;75193;53.980;13.902;2024-03-29T13:28:21;0.80;;;0.55;;
84931;SDS011;75193;53.980;13.902;2024-03-29T13:30:47;2.05;;;0.77;;
84931;SDS011;75193;53.980;13.902;2024-03-29T13:33:14;0.52;;;0.52;;
84931;SDS011;75193;53.980;13.902;2024-03-29T13:35:41;1.10;;;0.82;;
84931;SDS011;75193;53.980;13.902;2024-03-29T13:38:07;0.95;;;0.70;;
84931;SDS011;75193;53.980;13.902;2024-03-29T13:40:33;2.55;;;0.90;;
84931;SDS011;75193;53.980;13.902;2024-03-29T13:42:59;1.60;;;0.60;;
84931;SDS011;75193;53.980;13.902;2024-03-29T13:45:24;2.30;;;1.13;;
84931;SDS011;75193;53.980;13.902;2024-03-29T13:47:53;0.75;;;0.70;;
84931;SDS011;75193;53.980;13.902;2024-03-29T13:50:20;1.20;;;0.90;;
84931;SDS011;75193;53.980;13.902;2024-03-29T13:52:46;1.58;;;0.93;;
84931;SDS011;75193;53.980;13.902;2024-03-29T13:55:11;0.75;;;0.75;;
84931;SDS011;75193;53.980;13.902;2024-03-29T13:57:37;2.63;;;0.65;;
84931;SDS011;75193;53.980;13.902;2024-03-29T14:00:03;0.82;;;0.82;;
84931;SDS011;75193;53.980;13.902;2024-03-29T14:02:30;3.58;;;1.17;;
84931;SDS011;75193;53.980;13.902;2024-03-29T14:04:56;2.38;;;0.70;;
84931;SDS011;75193;53.980;13.902;2024-03-29T14:07:23;3.58;;;0.80;;
84931;SDS011;75193;53.980;13.902;2024-03-29T14:09:51;2.03;;;0.63;;
84931;SDS011;75193;53.980;13.902;2024-03-29T14:12:17;0.98;;;0.90;;
84931;SDS011;75193;53.980;13.902;2024-03-29T14:14:46;1.08;;;0.98;;
84931;SDS011;75193;53.980;13.902;2024-03-29T14:17:13;1.85;;;1.08;;
84931;SDS011;75193;53.980;13.902;2024-03-29T14:19:39;1.30;;;0.75;;
84931;SDS011;75193;53.980;13.902;2024-03-29T14:22:05;1.52;;;0.80;;
84931;SDS011;75193;53.980;13.902;2024-03-29T14:24:31;1.10;;;0.80;;
84931;SDS011;75193;53.980;13.902;2024-03-29T14:27:01;0.70;;;0.70;;
84931;SDS011;75193;53.980;13.902;2024-03-29T14:29:29;0.95;;;0.80;;
84931;SDS011;75193;53.980;13.902;2024-03-29T14:31:55;1.42;;;1.00;;
84931;SDS011;75193;53.980;13.902;2024-03-29T14:34:20;1.58;;;0.90;;
84931;SDS011;75193;53.980;13.902;2024-03-29T14:36:47;0.82;;;0.77;;
84931;SDS011;75193;53.980;13.902;2024-03-29T14:39:12;1.10;;;0.98;;
84931;SDS011;75193;53.980;13.902;2024-03-29T14:41:38;1.00;;;0.90;;
84931;SDS011;75193;53.980;13.902;2024-03-29T14:44:05;1.33;;;1.13;;
84931;SDS011;75193;53.980;13.902;2024-03-29T14:46:32;1.27;;;1.00;;
84931;SDS011;75193;53.980;13.902;2024-03-29T14:48:58;2.75;;;0.75;;
84931;SDS011;75193;53.980;13.902;2024-03-29T14:51:24;0.80;;;0.80;;
84931;SDS011;75193;53.980;13.902;2024-03-29T14:53:49;0.80;;;0.80;;
84931;SDS011;75193;53.980;13.902;2024-03-29T14:56:16;1.48;;;0.85;;
84931;SDS011;75193;53.980;13.902;2024-03-29T14:58:42;1.00;;;0.80;;
84931;SDS011;75193;53.980;13.902;2024-03-29T15:01:07;1.42;;;0.90;;
84931;SDS011;75193;53.980;13.902;2024-03-29T15:03:32;1.95;;;1.10;;
84931;SDS011;75193;53.980;13.902;2024-03-29T15:05:58;1.38;;;0.90;;
84931;SDS011;75193;53.980;13.902;2024-03-29T15:08:23;1.63;;;0.80;;
84931;SDS011;75193;53.980;13.902;2024-03-29T15:10:59;2.42;;;0.93;;
84931;SDS011;75193;53.980;13.902;2024-03-29T15:13:25;1.02;;;0.70;;
84931;SDS011;75193;53.980;13.902;2024-03-29T15:15:55;1.42;;;0.80;;
84931;SDS011;75193;53.980;13.902;2024-03-29T15:18:21;1.10;;;0.80;;
84931;SDS011;75193;53.980;13.902;2024-03-29T15:20:53;1.00;;;0.80;;
84931;SDS011;75193;53.980;13.902;2024-03-29T15:23:19;1.30;;;1.05;;
84931;SDS011;75193;53.980;13.902;2024-03-29T15:25:49;2.53;;;1.08;;
84931;SDS011;75193;53.980;13.902;2024-03-29T15:28:21;1.75;;;0.95;;
84931;SDS011;75193;53.980;13.902;2024-03-29T15:31:13;2.15;;;1.10;;
84931;SDS011;75193;53.980;13.902;2024-03-29T15:33:45;2.53;;;0.90;;
84931;SDS011;75193;53.980;13.902;2024-03-29T15:36:12;1.55;;;1.10;;
84931;SDS011;75193;53.980;13.902;2024-03-29T15:38:37;1.48;;;0.98;;
84931;SDS011;75193;53.980;13.902;2024-03-29T15:41:03;0.77;;;0.60;;
84931;SDS011;75193;53.980;13.902;2024-03-29T15:43:30;1.58;;;0.95;;
84931;SDS011;75193;53.980;13.902;2024-03-29T15:45:56;0.80;;;0.73;;
84931;SDS011;75193;53.980;13.902;2024-03-29T15:48:22;1.40;;;1.13;;
84931;SDS011;75193;53.980;13.902;2024-03-29T15:50:49;3.15;;;0.98;;
84931;SDS011;75193;53.980;13.902;2024-03-29T15:53:15;0.70;;;0.70;;
84931;SDS011;75193;53.980;13.902;2024-03-29T15:55:41;1.02;;;0.68;;
84931;SDS011;75193;53.980;13.902;2024-03-29T15:58:06;0.98;;;0.88;;
84931;SDS011;75193;53.980;13.902;2024-03-29T16:00:32;1.30;;;1.02;;
84931;SDS011;75193;53.980;13.902;2024-03-29T16:03:02;2.85;;;1.30;;
84931;SDS011;75193;53.980;13.902;2024-03-29T16:05:29;1.60;;;0.93;;
84931;SDS011;75193;53.980;13.902;2024-03-29T16:07:54;1.80;;;1.00;;
84931;SDS011;75193;53.980;13.902;2024-03-29T16:10:20;1.20;;;0.90;;
84931;SDS011;75193;53.980;13.902;2024-03-29T16:12:45;1.25;;;1.02;;